sensor_id;sensor_type;location;lat;lon;timestamp;temperature;humidity
2577;DHT22;1298;51.252;6.802;2023-11-18T00:02:22;4.70;99.90
2577;DHT22;1298;51.252;6.802;2023-11-18T00:05:08;4.70;99.90
2577;DHT22;1298;51.252;6.802;2023-11-18T00:07:54;4.70;99.90
2577;DHT22;1298;51.252;6.802;2023-11-18T00:10:41;4.80;99.90
2577;DHT22;1298;51.252;6.802;2023-11-18T00:13:26;4.80;99.90
2577;DHT22;1298;51.252;6.802;2023-11-18T00:16:15;4.80;99.90
2577;DHT22;1298;51.252;6.802;2023-11-18T00:19:04;4.80;99.90
2577;DHT22;1298;51.252;6.802;2023-11-18T00:21:49;4.80;99.90
2577;DHT22;1298;51.252;6.802;2023-11-18T00:24:35;4.80;99.90
2577;DHT22;1298;51.252;6.802;2023-11-18T00:27:22;4.80;99.90
2577;DHT22;1298;51.252;6.802;2023-11-18T00:30:09;4.90;99.90
2577;DHT22;1298;51.252;6.802;2023-11-18T00:32:56;4.90;99.90
2577;DHT22;1298;51.252;6.802;2023-11-18T00:35:41;5.00;99.90
2577;DHT22;1298;51.252;6.802;2023-11-18T00:38:27;5.00;99.90
2577;DHT22;1298;51.252;6.802;2023-11-18T00:41:13;5.00;99.90
2577;DHT22;1298;51.252;6.802;2023-11-18T00:44:00;5.00;99.90
2577;DHT22;1298;51.252;6.802;2023-11-18T00:46:45;5.00;99.90
2577;DHT22;1298;51.252;6.802;2023-11-18T00:49:31;5.00;99.90
2577;DHT22;1298;51.252;6.802;2023-11-18T00:52:18;5.00;99.90
2577;DHT22;1298;51.252;6.802;2023-11-18T00:55:04;5.10;99.90
2577;DHT22;1298;51.252;6.802;2023-11-18T00:57:51;5.00;99.90
2577;DHT22;1298;51.252;6.802;2023-11-18T01:00:38;5.00;99.90
2577;DHT22;1298;51.252;6.802;2023-11-18T01:03:23;5.00;99.90
2577;DHT22;1298;51.252;6.802;2023-11-18T01:06:09;5.10;99.90
2577;DHT22;1298;51.252;6.802;2023-11-18T01:08:55;5.10;99.90
2577;DHT22;1298;51.252;6.802;2023-11-18T01:11:40;5.10;99.90
2577;DHT22;1298;51.252;6.802;2023-11-18T01:14:26;5.20;99.90
2577;DHT22;1298;51.252;6.802;2023-11-18T01:17:13;5.20;99.90
2577;DHT22;1298;51.252;6.802;2023-11-18T01:19:59;5.20;99.90
2577;DHT22;1298;51.252;6.802;2023-11-18T01:22:45;5.10;99.90
2577;DHT22;1298;51.252;6.802;2023-11-18T01:25:31;5.10;99.90
2577;DHT22;1298;51.252;6.802;2023-11-18T01:28:16;5.10;99.90
2577;DHT22;1298;51.252;6.802;2023-11-18T01:31:02;5.00;99.90
2577;DHT22;1298;51.252;6.802;2023-11-18T01:33:50;5.00;99.90
2577;DHT22;1298;51.252;6.802;2023-11-18T01:36:35;5.00;99.90
2577;DHT22;1298;51.252;6.802;2023-11-18T01:39:21;5.00;99.90
2577;DHT22;1298;51.252;6.802;2023-11-18T01:42:09;5.00;99.90
2577;DHT22;1298;51.252;6.802;2023-11-18T01:44:56;5.00;99.90
2577;DHT22;1298;51.252;6.802;2023-11-18T01:47:44;4.90;99.90
2577;DHT22;1298;51.252;6.802;2023-11-18T01:50:30;5.00;99.90
2577;DHT22;1298;51.252;6.802;2023-11-18T01:53:16;4.90;99.90
2577;DHT22;1298;51.252;6.802;2023-11-18T01:56:03;4.90;99.90
2577;DHT22;1298;51.252;6.802;2023-11-18T01:58:49;4.80;99.90
2577;DHT22;1298;51.252;6.802;2023-11-18T02:01:35;4.80;99.90
2577;DHT22;1298;51.252;6.802;2023-11-18T02:04:21;4.80;99.90
2577;DHT22;1298;51.252;6.802;2023-11-18T02:07:07;4.80;99.90
2577;DHT22;1298;51.252;6.802;2023-11-18T02:09:53;4.80;99.90
2577;DHT22;1298;51.252;6.802;2023-11-18T02:12:44;4.70;99.90
2577;DHT22;1298;51.252;6.802;2023-11-18T02:15:33;4.80;99.90
2577;DHT22;1298;51.252;6.802;2023-11-18T02:18:20;4.80;99.90
2577;DHT22;1298;51.252;6.802;2023-11-18T02:21:07;4.80;99.90
2577;DHT22;1298;51.252;6.802;2023-11-18T02:23:53;4.70;99.90
2577;DHT22;1298;51.252;6.802;2023-11-18T02:26:40;4.70;99.90
2577;DHT22;1298;51.252;6.802;2023-11-18T02:29:27;4.70;99.90
2577;DHT22;1298;51.252;6.802;2023-11-18T02:32:17;4.80;99.90
2577;DHT22;1298;51.252;6.802;2023-11-18T02:35:10;4.80;99.90
2577;DHT22;1298;51.252;6.802;2023-11-18T02:37:58;4.70;99.90
2577;DHT22;1298;51.252;6.802;2023-11-18T02:40:45;4.70;99.90
2577;DHT22;1298;51.252;6.802;2023-11-18T02:43:35;4.70;99.90
2577;DHT22;1298;51.252;6.802;2023-11-18T02:46:22;4.70;99.90
2577;DHT22;1298;51.252;6.802;2023-11-18T02:49:11;4.70;99.90
2577;DHT22;1298;51.252;6.802;2023-11-18T02:51:57;4.60;99.90
2577;DHT22;1298;51.252;6.802;2023-11-18T02:54:42;4.60;99.90
2577;DHT22;1298;51.252;6.802;2023-11-18T02:57:28;4.60;99.90
2577;DHT22;1298;51.252;6.802;2023-11-18T03:00:15;4.60;99.90
2577;DHT22;1298;51.252;6.802;2023-11-18T03:03:03;4.60;99.90
2577;DHT22;1298;51.252;6.802;2023-11-18T03:05:49;4.60;99.90
2577;DHT22;1298;51.252;6.802;2023-11-18T03:08:35;4.60;99.90
2577;DHT22;1298;51.252;6.802;2023-11-18T03:11:20;4.50;99.90
2577;DHT22;1298;51.252;6.802;2023-11-18T03:14:06;4.60;99.90
2577;DHT22;1298;51.252;6.802;2023-11-18T03:16:55;4.60;99.90
2577;DHT22;1298;51.252;6.802;2023-11-18T03:19:40;4.50;99.90
2577;DHT22;1298;51.252;6.802;2023-11-18T03:22:26;4.60;99.90
2577;DHT22;1298;51.252;6.802;2023-11-18T03:25:12;4.60;99.90
2577;DHT22;1298;51.252;6.802;2023-11-18T03:27:57;4.70;99.90
2577;DHT22;1298;51.252;6.802;2023-11-18T03:30:43;4.60;99.90
2577;DHT22;1298;51.252;6.802;2023-11-18T03:33:30;4.70;99.90
2577;DHT22;1298;51.252;6.802;2023-11-18T03:36:16;4.70;99.90
2577;DHT22;1298;51.252;6.802;2023-11-18T03:39:03;4.70;99.90
2577;DHT22;1298;51.252;6.802;2023-11-18T03:41:50;4.70;99.90
2577;DHT22;1298;51.252;6.802;2023-11-18T03:44:36;4.60;99.90
2577;DHT22;1298;51.252;6.802;2023-11-18T03:47:21;4.60;99.90
2577;DHT22;1298;51.252;6.802;2023-11-18T03:50:09;4.60;99.90
2577;DHT22;1298;51.252;6.802;2023-11-18T03:52:57;4.60;99.90
2577;DHT22;1298;51.252;6.802;2023-11-18T03:55:42;4.60;99.90
2577;DHT22;1298;51.252;6.802;2023-11-18T03:58:28;4.60;99.90
2577;DHT22;1298;51.252;6.802;2023-11-18T04:01:19;4.50;99.90
2577;DHT22;1298;51.252;6.802;2023-11-18T04:04:05;4.40;99.90
2577;DHT22;1298;51.252;6.802;2023-11-18T04:06:52;4.50;99.90
2577;DHT22;1298;51.252;6.802;2023-11-18T04:09:38;4.50;99.90
2577;DHT22;1298;51.252;6.802;2023-11-18T04:12:25;4.50;99.90
2577;DHT22;1298;51.252;6.802;2023-11-18T04:15:10;4.50;99.90
2577;DHT22;1298;51.252;6.802;2023-11-18T04:17:56;4.50;99.90
2577;DHT22;1298;51.252;6.802;2023-11-18T04:20:42;4.50;99.90
2577;DHT22;1298;51.252;6.802;2023-11-18T04:23:30;4.50;99.90
2577;DHT22;1298;51.252;6.802;2023-11-18T04:26:16;4.50;99.90
2577;DHT22;1298;51.252;6.802;2023-11-18T04:29:03;4.40;99.90
2577;DHT22;1298;51.252;6.802;2023-11-18T04:31:48;4.40;99.90
2577;DHT22;1298;51.252;6.802;2023-11-18T04:34:35;4.50;99.90
2577;DHT22;1298;51.252;6.802;2023-11-18T04:37:20;4.40;99.90
2577;DHT22;1298;51.252;6.802;2023-11-18T04:40:09;4.40;99.90
2577;DHT22;1298;51.252;6.802;2023-11-18T04:42:55;4.40;99.90
2577;DHT22;1298;51.252;6.802;2023-11-18T04:45:42;4.40;99.90
2577;DHT22;1298;51.252;6.802;2023-11-18T04:48:28;4.40;99.90
2577;DHT22;1298;51.252;6.802;2023-11-18T04:51:13;4.40;99.90
2577;DHT22;1298;51.252;6.802;2023-11-18T04:53:59;4.40;99.90
2577;DHT22;1298;51.252;6.802;2023-11-18T04:56:48;4.40;99.90
2577;DHT22;1298;51.252;6.802;2023-11-18T04:59:34;4.40;99.90
2577;DHT22;1298;51.252;6.802;2023-11-18T05:02:20;4.30;99.90
2577;DHT22;1298;51.252;6.802;2023-11-18T05:05:05;4.40;99.90
2577;DHT22;1298;51.252;6.802;2023-11-18T05:07:51;4.40;99.90
2577;DHT22;1298;51.252;6.802;2023-11-18T05:10:37;4.30;99.90
2577;DHT22;1298;51.252;6.802;2023-11-18T05:13:24;4.40;99.90
2577;DHT22;1298;51.252;6.802;2023-11-18T05:16:11;4.30;99.90
2577;DHT22;1298;51.252;6.802;2023-11-18T05:18:58;4.30;99.90
2577;DHT22;1298;51.252;6.802;2023-11-18T05:21:44;4.30;99.90
2577;DHT22;1298;51.252;6.802;2023-11-18T05:24:33;4.30;99.90
2577;DHT22;1298;51.252;6.802;2023-11-18T05:27:19;4.30;99.90
2577;DHT22;1298;51.252;6.802;2023-11-18T05:30:07;4.30;99.90
2577;DHT22;1298;51.252;6.802;2023-11-18T05:32:53;4.40;99.90
2577;DHT22;1298;51.252;6.802;2023-11-18T05:35:39;4.40;99.90
2577;DHT22;1298;51.252;6.802;2023-11-18T05:38:27;4.40;99.90
2577;DHT22;1298;51.252;6.802;2023-11-18T05:41:16;4.40;99.90
2577;DHT22;1298;51.252;6.802;2023-11-18T05:44:07;4.40;99.90
2577;DHT22;1298;51.252;6.802;2023-11-18T05:47:02;4.50;99.90
2577;DHT22;1298;51.252;6.802;2023-11-18T05:49:48;4.50;99.90
2577;DHT22;1298;51.252;6.802;2023-11-18T05:52:34;4.60;99.90
2577;DHT22;1298;51.252;6.802;2023-11-18T05:55:19;4.50;99.90
2577;DHT22;1298;51.252;6.802;2023-11-18T05:58:05;4.60;99.90
2577;DHT22;1298;51.252;6.802;2023-11-18T06:00:53;4.60;99.90
2577;DHT22;1298;51.252;6.802;2023-11-18T06:03:41;4.60;99.90
2577;DHT22;1298;51.252;6.802;2023-11-18T06:06:27;4.60;99.90
2577;DHT22;1298;51.252;6.802;2023-11-18T06:09:12;4.70;99.90
2577;DHT22;1298;51.252;6.802;2023-11-18T06:12:05;4.70;99.90
2577;DHT22;1298;51.252;6.802;2023-11-18T06:14:52;4.70;99.90
2577;DHT22;1298;51.252;6.802;2023-11-18T06:17:38;4.70;99.90
2577;DHT22;1298;51.252;6.802;2023-11-18T06:20:26;4.70;99.90
2577;DHT22;1298;51.252;6.802;2023-11-18T06:23:11;4.80;99.90
2577;DHT22;1298;51.252;6.802;2023-11-18T06:25:59;4.80;99.90
2577;DHT22;1298;51.252;6.802;2023-11-18T06:28:46;4.80;99.90
2577;DHT22;1298;51.252;6.802;2023-11-18T06:31:31;4.80;99.90
2577;DHT22;1298;51.252;6.802;2023-11-18T06:34:17;4.80;99.90
2577;DHT22;1298;51.252;6.802;2023-11-18T06:37:06;4.80;99.90
2577;DHT22;1298;51.252;6.802;2023-11-18T06:39:51;4.90;99.90
2577;DHT22;1298;51.252;6.802;2023-11-18T06:42:37;4.90;99.90
2577;DHT22;1298;51.252;6.802;2023-11-18T06:45:23;4.90;99.90
2577;DHT22;1298;51.252;6.802;2023-11-18T06:48:09;5.00;99.90
2577;DHT22;1298;51.252;6.802;2023-11-18T06:50:55;5.00;99.90
2577;DHT22;1298;51.252;6.802;2023-11-18T06:53:42;5.00;99.90
2577;DHT22;1298;51.252;6.802;2023-11-18T06:56:28;5.00;99.90
2577;DHT22;1298;51.252;6.802;2023-11-18T06:59:14;5.00;99.90
2577;DHT22;1298;51.252;6.802;2023-11-18T07:01:59;5.00;99.90
2577;DHT22;1298;51.252;6.802;2023-11-18T07:04:45;5.00;99.90
2577;DHT22;1298;51.252;6.802;2023-11-18T07:07:31;5.10;99.90
2577;DHT22;1298;51.252;6.802;2023-11-18T07:10:18;5.10;99.90
2577;DHT22;1298;51.252;6.802;2023-11-18T07:13:04;5.10;99.90
2577;DHT22;1298;51.252;6.802;2023-11-18T07:15:51;5.20;99.90
2577;DHT22;1298;51.252;6.802;2023-11-18T07:18:38;5.20;99.90
2577;DHT22;1298;51.252;6.802;2023-11-18T07:21:24;5.20;99.90
2577;DHT22;1298;51.252;6.802;2023-11-18T07:24:09;5.20;99.90
2577;DHT22;1298;51.252;6.802;2023-11-18T07:26:56;5.30;99.90
2577;DHT22;1298;51.252;6.802;2023-11-18T07:29:44;5.40;99.90
2577;DHT22;1298;51.252;6.802;2023-11-18T07:32:29;5.50;99.90
2577;DHT22;1298;51.252;6.802;2023-11-18T07:35:15;5.50;99.90
2577;DHT22;1298;51.252;6.802;2023-11-18T07:38:02;5.50;99.90
2577;DHT22;1298;51.252;6.802;2023-11-18T07:40:47;5.50;99.90
2577;DHT22;1298;51.252;6.802;2023-11-18T07:43:34;5.50;99.90
2577;DHT22;1298;51.252;6.802;2023-11-18T07:46:20;5.50;99.90
2577;DHT22;1298;51.252;6.802;2023-11-18T07:49:06;5.50;99.90
2577;DHT22;1298;51.252;6.802;2023-11-18T07:51:52;5.50;99.90
2577;DHT22;1298;51.252;6.802;2023-11-18T07:57:58;-1.10;99.90
2577;DHT22;1298;51.252;6.802;2023-11-18T08:00:43;1.70;99.90
2577;DHT22;1298;51.252;6.802;2023-11-18T08:03:30;3.50;99.90
2577;DHT22;1298;51.252;6.802;2023-11-18T08:06:17;4.40;99.90
2577;DHT22;1298;51.252;6.802;2023-11-18T08:09:03;4.70;99.90
2577;DHT22;1298;51.252;6.802;2023-11-18T08:11:56;5.00;99.90
2577;DHT22;1298;51.252;6.802;2023-11-18T08:14:43;5.20;99.90
2577;DHT22;1298;51.252;6.802;2023-11-18T08:17:29;5.30;99.90
2577;DHT22;1298;51.252;6.802;2023-11-18T08:20:14;5.40;99.90
2577;DHT22;1298;51.252;6.802;2023-11-18T08:23:00;5.40;99.90
2577;DHT22;1298;51.252;6.802;2023-11-18T08:25:45;5.60;99.90
2577;DHT22;1298;51.252;6.802;2023-11-18T08:28:31;5.80;99.90
2577;DHT22;1298;51.252;6.802;2023-11-18T08:31:18;5.90;99.90
2577;DHT22;1298;51.252;6.802;2023-11-18T08:34:04;6.00;99.90
2577;DHT22;1298;51.252;6.802;2023-11-18T08:36:50;6.00;99.90
2577;DHT22;1298;51.252;6.802;2023-11-18T08:39:36;6.00;99.90
2577;DHT22;1298;51.252;6.802;2023-11-18T08:42:21;6.10;99.90
2577;DHT22;1298;51.252;6.802;2023-11-18T08:45:09;6.10;99.90
2577;DHT22;1298;51.252;6.802;2023-11-18T08:48:01;6.20;99.90
2577;DHT22;1298;51.252;6.802;2023-11-18T08:50:48;6.30;99.90
2577;DHT22;1298;51.252;6.802;2023-11-18T08:53:35;6.30;99.90
2577;DHT22;1298;51.252;6.802;2023-11-18T08:56:25;6.40;99.90
2577;DHT22;1298;51.252;6.802;2023-11-18T08:59:19;6.40;99.90
2577;DHT22;1298;51.252;6.802;2023-11-18T09:02:08;6.70;99.90
2577;DHT22;1298;51.252;6.802;2023-11-18T09:05:00;6.60;99.90
2577;DHT22;1298;51.252;6.802;2023-11-18T09:07:50;6.60;99.90
2577;DHT22;1298;51.252;6.802;2023-11-18T09:13:07;6.70;99.90
2577;DHT22;1298;51.252;6.802;2023-11-18T09:15:53;6.70;99.90
2577;DHT22;1298;51.252;6.802;2023-11-18T09:18:41;6.70;99.90
2577;DHT22;1298;51.252;6.802;2023-11-18T09:21:30;6.80;99.90
2577;DHT22;1298;51.252;6.802;2023-11-18T09:24:19;6.80;99.90
2577;DHT22;1298;51.252;6.802;2023-11-18T09:27:07;6.90;99.90
2577;DHT22;1298;51.252;6.802;2023-11-18T09:29:53;6.90;99.90
2577;DHT22;1298;51.252;6.802;2023-11-18T09:32:39;6.90;99.90
2577;DHT22;1298;51.252;6.802;2023-11-18T09:35:26;6.90;99.90
2577;DHT22;1298;51.252;6.802;2023-11-18T09:38:13;7.00;99.90
2577;DHT22;1298;51.252;6.802;2023-11-18T09:41:01;7.00;99.90
2577;DHT22;1298;51.252;6.802;2023-11-18T09:43:47;7.00;99.90
2577;DHT22;1298;51.252;6.802;2023-11-18T09:46:40;7.10;99.90
2577;DHT22;1298;51.252;6.802;2023-11-18T09:49:30;7.10;99.90
2577;DHT22;1298;51.252;6.802;2023-11-18T09:52:22;7.20;99.90
2577;DHT22;1298;51.252;6.802;2023-11-18T09:55:15;7.20;99.90
2577;DHT22;1298;51.252;6.802;2023-11-18T09:58:04;7.20;99.90
2577;DHT22;1298;51.252;6.802;2023-11-18T10:00:58;7.30;99.90
2577;DHT22;1298;51.252;6.802;2023-11-18T10:03:46;7.30;99.90
2577;DHT22;1298;51.252;6.802;2023-11-18T10:06:35;7.30;99.90
2577;DHT22;1298;51.252;6.802;2023-11-18T10:09:20;7.30;99.90
2577;DHT22;1298;51.252;6.802;2023-11-18T10:12:13;7.40;99.90
2577;DHT22;1298;51.252;6.802;2023-11-18T10:15:00;7.50;99.90
2577;DHT22;1298;51.252;6.802;2023-11-18T10:17:47;7.60;99.90
2577;DHT22;1298;51.252;6.802;2023-11-18T10:20:45;7.70;99.90
2577;DHT22;1298;51.252;6.802;2023-11-18T10:23:30;7.70;99.90
2577;DHT22;1298;51.252;6.802;2023-11-18T10:26:17;7.70;99.90
2577;DHT22;1298;51.252;6.802;2023-11-18T10:29:05;7.60;99.90
2577;DHT22;1298;51.252;6.802;2023-11-18T10:32:05;7.60;99.90
2577;DHT22;1298;51.252;6.802;2023-11-18T10:34:55;7.60;99.90
2577;DHT22;1298;51.252;6.802;2023-11-18T10:37:41;7.60;99.90
2577;DHT22;1298;51.252;6.802;2023-11-18T10:40:27;7.70;99.90
2577;DHT22;1298;51.252;6.802;2023-11-18T10:43:13;7.70;99.90
2577;DHT22;1298;51.252;6.802;2023-11-18T10:46:06;7.80;99.90
2577;DHT22;1298;51.252;6.802;2023-11-18T10:48:55;7.80;99.90
2577;DHT22;1298;51.252;6.802;2023-11-18T10:51:42;7.80;99.90
2577;DHT22;1298;51.252;6.802;2023-11-18T10:54:31;7.70;99.90
2577;DHT22;1298;51.252;6.802;2023-11-18T10:57:17;7.80;99.90
2577;DHT22;1298;51.252;6.802;2023-11-18T11:00:04;7.80;99.90
2577;DHT22;1298;51.252;6.802;2023-11-18T11:02:59;7.90;99.90
2577;DHT22;1298;51.252;6.802;2023-11-18T11:05:44;7.90;99.90
2577;DHT22;1298;51.252;6.802;2023-11-18T11:08:30;7.90;99.90
2577;DHT22;1298;51.252;6.802;2023-11-18T11:11:18;7.90;99.90
2577;DHT22;1298;51.252;6.802;2023-11-18T11:14:06;8.00;99.90
2577;DHT22;1298;51.252;6.802;2023-11-18T11:16:55;8.00;99.90
2577;DHT22;1298;51.252;6.802;2023-11-18T11:19:50;8.00;99.90
2577;DHT22;1298;51.252;6.802;2023-11-18T11:22:56;8.00;99.90
2577;DHT22;1298;51.252;6.802;2023-11-18T11:25:59;8.00;99.90
2577;DHT22;1298;51.252;6.802;2023-11-18T11:28:55;8.00;99.90
2577;DHT22;1298;51.252;6.802;2023-11-18T11:31:48;7.90;99.90
2577;DHT22;1298;51.252;6.802;2023-11-18T11:34:37;7.90;99.90
2577;DHT22;1298;51.252;6.802;2023-11-18T11:37:27;8.00;99.90
2577;DHT22;1298;51.252;6.802;2023-11-18T11:40:14;8.00;99.90
2577;DHT22;1298;51.252;6.802;2023-11-18T11:43:08;8.00;99.90
2577;DHT22;1298;51.252;6.802;2023-11-18T11:45:55;8.10;99.90
2577;DHT22;1298;51.252;6.802;2023-11-18T11:48:41;8.00;99.90
2577;DHT22;1298;51.252;6.802;2023-11-18T11:51:33;8.10;99.90
2577;DHT22;1298;51.252;6.802;2023-11-18T11:54:25;8.10;99.90
2577;DHT22;1298;51.252;6.802;2023-11-18T11:57:13;8.10;99.90
2577;DHT22;1298;51.252;6.802;2023-11-18T11:59:58;8.10;99.90
2577;DHT22;1298;51.252;6.802;2023-11-18T12:03:01;8.10;99.90
2577;DHT22;1298;51.252;6.802;2023-11-18T12:05:49;8.10;99.90
2577;DHT22;1298;51.252;6.802;2023-11-18T12:08:36;8.20;99.90
2577;DHT22;1298;51.252;6.802;2023-11-18T12:11:25;8.20;99.90
2577;DHT22;1298;51.252;6.802;2023-11-18T12:14:14;8.20;99.90
2577;DHT22;1298;51.252;6.802;2023-11-18T12:17:16;8.10;99.90
2577;DHT22;1298;51.252;6.802;2023-11-18T12:23:28;8.10;99.90
2577;DHT22;1298;51.252;6.802;2023-11-18T12:26:38;8.00;99.90
2577;DHT22;1298;51.252;6.802;2023-11-18T12:29:31;8.00;99.90
2577;DHT22;1298;51.252;6.802;2023-11-18T12:32:58;8.00;99.90
2577;DHT22;1298;51.252;6.802;2023-11-18T12:36:16;8.00;99.90
2577;DHT22;1298;51.252;6.802;2023-11-18T12:43:01;8.00;99.90
2577;DHT22;1298;51.252;6.802;2023-11-18T12:49:26;8.00;99.90
2577;DHT22;1298;51.252;6.802;2023-11-18T12:52:14;8.00;99.90
2577;DHT22;1298;51.252;6.802;2023-11-18T12:55:03;8.00;99.90
2577;DHT22;1298;51.252;6.802;2023-11-18T12:57:53;8.00;99.90
2577;DHT22;1298;51.252;6.802;2023-11-18T13:00:42;7.90;99.90
2577;DHT22;1298;51.252;6.802;2023-11-18T13:03:29;7.90;99.90
2577;DHT22;1298;51.252;6.802;2023-11-18T13:06:14;8.00;99.90
2577;DHT22;1298;51.252;6.802;2023-11-18T13:08:59;8.00;99.90
2577;DHT22;1298;51.252;6.802;2023-11-18T13:11:50;8.00;99.90
2577;DHT22;1298;51.252;6.802;2023-11-18T13:14:38;8.10;99.90
2577;DHT22;1298;51.252;6.802;2023-11-18T13:17:23;8.00;99.90
2577;DHT22;1298;51.252;6.802;2023-11-18T13:20:12;8.00;99.90
2577;DHT22;1298;51.252;6.802;2023-11-18T13:22:58;8.00;99.90
2577;DHT22;1298;51.252;6.802;2023-11-18T13:25:45;8.00;99.90
2577;DHT22;1298;51.252;6.802;2023-11-18T13:28:32;8.00;99.90
2577;DHT22;1298;51.252;6.802;2023-11-18T13:31:19;8.00;99.90
2577;DHT22;1298;51.252;6.802;2023-11-18T13:34:05;8.00;99.90
2577;DHT22;1298;51.252;6.802;2023-11-18T13:36:51;8.00;99.90
2577;DHT22;1298;51.252;6.802;2023-11-18T13:39:36;8.00;99.90
2577;DHT22;1298;51.252;6.802;2023-11-18T13:42:23;8.00;99.90
2577;DHT22;1298;51.252;6.802;2023-11-18T13:45:12;8.00;99.90
2577;DHT22;1298;51.252;6.802;2023-11-18T13:48:01;8.00;99.90
2577;DHT22;1298;51.252;6.802;2023-11-18T13:50:47;8.00;99.90
2577;DHT22;1298;51.252;6.802;2023-11-18T13:53:32;8.00;99.90
2577;DHT22;1298;51.252;6.802;2023-11-18T13:56:19;8.00;99.90
2577;DHT22;1298;51.252;6.802;2023-11-18T13:59:06;8.00;99.90
2577;DHT22;1298;51.252;6.802;2023-11-18T14:01:53;8.00;99.90
2577;DHT22;1298;51.252;6.802;2023-11-18T14:04:40;8.00;99.90
2577;DHT22;1298;51.252;6.802;2023-11-18T14:07:27;8.00;99.90
2577;DHT22;1298;51.252;6.802;2023-11-18T14:10:13;8.00;99.90
2577;DHT22;1298;51.252;6.802;2023-11-18T14:13:00;8.10;99.90
2577;DHT22;1298;51.252;6.802;2023-11-18T14:15:46;8.30;99.90
2577;DHT22;1298;51.252;6.802;2023-11-18T14:18:32;8.40;99.90
2577;DHT22;1298;51.252;6.802;2023-11-18T14:21:21;8.60;99.90
2577;DHT22;1298;51.252;6.802;2023-11-18T14:24:08;8.50;99.90
2577;DHT22;1298;51.252;6.802;2023-11-18T14:26:55;8.40;99.90
2577;DHT22;1298;51.252;6.802;2023-11-18T14:29:40;8.30;99.90
2577;DHT22;1298;51.252;6.802;2023-11-18T14:32:26;8.20;99.90
2577;DHT22;1298;51.252;6.802;2023-11-18T14:35:12;8.10;99.90
2577;DHT22;1298;51.252;6.802;2023-11-18T14:38:02;8.10;99.90
2577;DHT22;1298;51.252;6.802;2023-11-18T14:40:48;8.10;99.90
2577;DHT22;1298;51.252;6.802;2023-11-18T14:43:33;8.00;99.90
2577;DHT22;1298;51.252;6.802;2023-11-18T14:46:19;8.00;99.90
2577;DHT22;1298;51.252;6.802;2023-11-18T14:49:05;8.00;99.90
2577;DHT22;1298;51.252;6.802;2023-11-18T14:51:51;8.00;99.90
2577;DHT22;1298;51.252;6.802;2023-11-18T14:54:38;8.00;99.90
2577;DHT22;1298;51.252;6.802;2023-11-18T14:57:24;8.00;99.90
2577;DHT22;1298;51.252;6.802;2023-11-18T15:00:11;7.90;99.90
2577;DHT22;1298;51.252;6.802;2023-11-18T15:03:03;7.90;99.90
2577;DHT22;1298;51.252;6.802;2023-11-18T15:05:50;7.90;99.90
2577;DHT22;1298;51.252;6.802;2023-11-18T15:08:35;7.90;99.90
2577;DHT22;1298;51.252;6.802;2023-11-18T15:11:23;7.80;99.90
2577;DHT22;1298;51.252;6.802;2023-11-18T15:14:08;7.80;99.90
2577;DHT22;1298;51.252;6.802;2023-11-18T15:16:56;7.80;99.90
2577;DHT22;1298;51.252;6.802;2023-11-18T15:19:41;7.70;99.90
2577;DHT22;1298;51.252;6.802;2023-11-18T15:22:27;7.70;99.90
2577;DHT22;1298;51.252;6.802;2023-11-18T15:25:13;7.70;99.90
2577;DHT22;1298;51.252;6.802;2023-11-18T15:28:03;7.70;99.90
2577;DHT22;1298;51.252;6.802;2023-11-18T15:30:53;7.70;99.90
2577;DHT22;1298;51.252;6.802;2023-11-18T15:33:39;7.70;99.90
2577;DHT22;1298;51.252;6.802;2023-11-18T15:36:25;7.70;99.90
2577;DHT22;1298;51.252;6.802;2023-11-18T15:39:11;7.70;99.90
2577;DHT22;1298;51.252;6.802;2023-11-18T15:41:59;7.70;99.90
2577;DHT22;1298;51.252;6.802;2023-11-18T15:44:46;7.70;99.90
2577;DHT22;1298;51.252;6.802;2023-11-18T15:47:31;7.70;99.90
2577;DHT22;1298;51.252;6.802;2023-11-18T15:50:20;7.70;99.90
2577;DHT22;1298;51.252;6.802;2023-11-18T15:53:05;7.70;99.90
2577;DHT22;1298;51.252;6.802;2023-11-18T15:55:51;7.60;99.90
2577;DHT22;1298;51.252;6.802;2023-11-18T15:58:36;7.60;99.90
2577;DHT22;1298;51.252;6.802;2023-11-18T16:01:23;7.60;99.90
2577;DHT22;1298;51.252;6.802;2023-11-18T16:04:10;7.60;99.90
2577;DHT22;1298;51.252;6.802;2023-11-18T16:07:00;7.70;99.90
2577;DHT22;1298;51.252;6.802;2023-11-18T16:09:46;7.80;99.90
2577;DHT22;1298;51.252;6.802;2023-11-18T16:12:33;7.80;99.90
2577;DHT22;1298;51.252;6.802;2023-11-18T16:15:18;7.70;99.90
2577;DHT22;1298;51.252;6.802;2023-11-18T16:18:06;7.70;99.90
2577;DHT22;1298;51.252;6.802;2023-11-18T16:20:52;7.70;99.90
2577;DHT22;1298;51.252;6.802;2023-11-18T16:23:37;7.70;99.90
2577;DHT22;1298;51.252;6.802;2023-11-18T16:26:23;7.70;99.90
2577;DHT22;1298;51.252;6.802;2023-11-18T16:29:09;7.70;99.90
2577;DHT22;1298;51.252;6.802;2023-11-18T16:31:54;7.70;99.90
2577;DHT22;1298;51.252;6.802;2023-11-18T16:34:42;7.70;99.90
2577;DHT22;1298;51.252;6.802;2023-11-18T16:37:27;7.70;99.90
2577;DHT22;1298;51.252;6.802;2023-11-18T16:40:13;7.70;99.90
2577;DHT22;1298;51.252;6.802;2023-11-18T16:42:59;7.70;99.90
2577;DHT22;1298;51.252;6.802;2023-11-18T16:45:45;7.70;99.90
2577;DHT22;1298;51.252;6.802;2023-11-18T16:48:33;7.70;99.90
2577;DHT22;1298;51.252;6.802;2023-11-18T16:51:21;7.70;99.90
2577;DHT22;1298;51.252;6.802;2023-11-18T16:54:06;7.70;99.90
2577;DHT22;1298;51.252;6.802;2023-11-18T16:56:52;7.80;99.90
2577;DHT22;1298;51.252;6.802;2023-11-18T16:59:39;7.80;99.90
2577;DHT22;1298;51.252;6.802;2023-11-18T17:02:25;7.80;99.90
2577;DHT22;1298;51.252;6.802;2023-11-18T17:05:11;7.80;99.90
2577;DHT22;1298;51.252;6.802;2023-11-18T17:07:58;7.80;99.90
2577;DHT22;1298;51.252;6.802;2023-11-18T17:10:43;7.80;99.90
2577;DHT22;1298;51.252;6.802;2023-11-18T17:13:36;7.80;99.90
2577;DHT22;1298;51.252;6.802;2023-11-18T17:16:24;7.80;99.90
2577;DHT22;1298;51.252;6.802;2023-11-18T17:19:11;7.80;99.90
2577;DHT22;1298;51.252;6.802;2023-11-18T17:21:56;7.80;99.90
2577;DHT22;1298;51.252;6.802;2023-11-18T17:24:43;7.80;99.90
2577;DHT22;1298;51.252;6.802;2023-11-18T17:27:29;7.80;99.90
2577;DHT22;1298;51.252;6.802;2023-11-18T17:30:15;7.80;99.90
2577;DHT22;1298;51.252;6.802;2023-11-18T17:33:01;7.80;99.90
2577;DHT22;1298;51.252;6.802;2023-11-18T17:35:47;7.80;99.90
2577;DHT22;1298;51.252;6.802;2023-11-18T17:38:33;7.80;99.90
2577;DHT22;1298;51.252;6.802;2023-11-18T17:41:20;7.80;99.90
2577;DHT22;1298;51.252;6.802;2023-11-18T17:44:06;7.80;99.90
2577;DHT22;1298;51.252;6.802;2023-11-18T17:46:52;7.80;99.90
2577;DHT22;1298;51.252;6.802;2023-11-18T17:49:37;7.80;99.90
2577;DHT22;1298;51.252;6.802;2023-11-18T17:52:23;7.80;99.90
2577;DHT22;1298;51.252;6.802;2023-11-18T17:55:09;7.80;99.90
2577;DHT22;1298;51.252;6.802;2023-11-18T17:57:57;7.80;99.90
2577;DHT22;1298;51.252;6.802;2023-11-18T18:00:44;7.80;99.90
2577;DHT22;1298;51.252;6.802;2023-11-18T18:03:29;7.90;99.90
2577;DHT22;1298;51.252;6.802;2023-11-18T18:06:15;7.90;99.90
2577;DHT22;1298;51.252;6.802;2023-11-18T18:09:00;7.90;99.90
2577;DHT22;1298;51.252;6.802;2023-11-18T18:11:46;7.90;99.90
2577;DHT22;1298;51.252;6.802;2023-11-18T18:14:33;7.90;99.90
2577;DHT22;1298;51.252;6.802;2023-11-18T18:17:18;7.90;99.90
2577;DHT22;1298;51.252;6.802;2023-11-18T18:20:05;7.90;99.90
2577;DHT22;1298;51.252;6.802;2023-11-18T18:22:52;7.90;99.90
2577;DHT22;1298;51.252;6.802;2023-11-18T18:25:38;7.90;99.90
2577;DHT22;1298;51.252;6.802;2023-11-18T18:28:24;7.90;99.90
2577;DHT22;1298;51.252;6.802;2023-11-18T18:31:10;8.00;99.90
2577;DHT22;1298;51.252;6.802;2023-11-18T18:33:56;8.00;99.90
2577;DHT22;1298;51.252;6.802;2023-11-18T18:36:41;8.00;99.90
2577;DHT22;1298;51.252;6.802;2023-11-18T18:39:27;8.00;99.90
2577;DHT22;1298;51.252;6.802;2023-11-18T18:42:13;8.10;99.90
2577;DHT22;1298;51.252;6.802;2023-11-18T18:44:58;8.20;99.90
2577;DHT22;1298;51.252;6.802;2023-11-18T18:47:45;8.20;99.90